createdAt,value
2023-05-19T03:57:18.930Z,6.00
2023-05-19T04:00:22.922Z,5.68
2023-05-19T04:03:26.703Z,5.70
2023-05-19T04:06:28.954Z,5.57
2023-05-19T04:09:35.409Z,5.62
2023-05-19T04:15:40.986Z,5.25
2023-05-19T04:18:46.173Z,4.80
2023-05-19T04:21:48.758Z,5.43
2023-05-19T04:24:52.278Z,5.28
2023-05-19T04:27:57.684Z,4.47
2023-05-19T04:31:00.336Z,4.63
2023-05-19T04:34:02.890Z,5.20
2023-05-19T04:37:07.049Z,4.90
2023-05-19T04:40:11.129Z,4.80
2023-05-19T04:43:13.500Z,5.25
2023-05-19T04:46:16.218Z,5.60
2023-05-19T04:49:19.391Z,5.25
2023-05-19T04:52:22.528Z,5.60
2023-05-19T04:55:26.046Z,5.18
2023-05-19T04:58:28.561Z,5.65
2023-05-19T05:01:32.912Z,5.55
2023-05-19T05:04:36.227Z,6.10
2023-05-19T05:07:39.314Z,5.40
2023-05-19T05:10:42.230Z,6.22
2023-05-19T05:13:44.781Z,6.40
2023-05-19T05:16:47.861Z,7.45
2023-05-19T05:19:51.291Z,6.65
2023-05-19T05:22:54.103Z,8.50
2023-05-19T05:25:56.804Z,8.27
2023-05-19T05:28:59.467Z,8.02
2023-05-19T05:32:01.948Z,8.45
2023-05-19T05:35:05.183Z,8.45
2023-05-19T05:38:08.118Z,8.32
2023-05-19T05:41:11.373Z,7.57
2023-05-19T05:44:13.764Z,8.57
2023-05-19T05:47:16.865Z,8.60
2023-05-19T05:50:20.342Z,7.97
2023-05-19T05:53:25.140Z,8.18
2023-05-19T05:56:28.609Z,8.05
2023-05-19T05:59:31.108Z,7.53
2023-05-19T06:02:33.372Z,8.45
2023-05-19T06:05:36.166Z,8.30
2023-05-19T06:08:38.491Z,8.07
2023-05-19T06:11:41.512Z,8.18
2023-05-19T06:14:44.908Z,7.93
2023-05-19T06:17:48.568Z,7.87
2023-05-19T06:20:50.959Z,8.38
2023-05-19T06:23:53.541Z,8.63
2023-05-19T06:26:55.802Z,8.27
2023-05-19T06:29:58.427Z,8.07
2023-05-19T06:33:00.858Z,8.27
2023-05-19T06:36:03.648Z,7.82
2023-05-19T06:39:06.374Z,7.85
2023-05-19T06:42:08.905Z,7.20
2023-05-19T06:45:15.114Z,8.15
2023-05-19T06:48:17.765Z,8.40
2023-05-19T06:51:21.789Z,6.47
2023-05-19T06:54:25.493Z,7.20
2023-05-19T06:57:27.891Z,7.90
2023-05-19T07:00:32.398Z,7.82
2023-05-19T07:03:36.316Z,8.13
2023-05-19T07:06:39.342Z,8.45
2023-05-19T07:09:41.732Z,7.78
2023-05-19T07:12:44.310Z,8.50
2023-05-19T07:15:49.035Z,8.50
2023-05-19T07:18:52.285Z,7.97
2023-05-19T07:21:55.467Z,7.55
2023-05-19T07:24:58.107Z,6.43
2023-05-19T07:28:00.610Z,7.68
2023-05-19T07:31:03.064Z,7.25
2023-05-19T07:34:05.503Z,6.40
2023-05-19T07:37:08.251Z,6.00
2023-05-19T07:40:11.775Z,6.10
2023-05-19T07:43:14.738Z,5.68
2023-05-19T07:46:17.109Z,4.93
2023-05-19T07:49:19.622Z,5.65
2023-05-19T07:52:22.101Z,5.22
2023-05-19T07:55:24.684Z,5.05
2023-05-19T07:58:26.930Z,4.82
2023-05-19T08:01:30.346Z,4.62
2023-05-19T08:04:32.933Z,4.78
2023-05-19T08:07:35.335Z,4.28
2023-05-19T08:10:37.860Z,4.40
2023-05-19T08:13:40.066Z,4.40
2023-05-19T08:16:43.857Z,4.15
2023-05-19T08:19:46.339Z,4.30
2023-05-19T08:22:48.933Z,4.00
2023-05-19T08:25:51.250Z,4.07
2023-05-19T08:28:53.876Z,4.18
2023-05-19T08:31:56.241Z,3.97
2023-05-19T08:34:58.692Z,3.90
2023-05-19T08:38:01.029Z,3.70
2023-05-19T08:41:03.839Z,3.42
2023-05-19T08:44:06.163Z,4.10
2023-05-19T08:47:13.313Z,4.22
2023-05-19T08:50:30.714Z,3.97
2023-05-19T08:53:37.850Z,4.78
2023-05-19T08:56:40.370Z,5.10
2023-05-19T08:59:43.897Z,4.60
2023-05-19T09:02:59.812Z,5.12
2023-05-19T09:06:08.965Z,5.45
2023-05-19T09:09:23.169Z,5.85
2023-05-19T09:12:26.860Z,5.25
2023-05-19T09:15:29.040Z,5.47
2023-05-19T09:18:31.825Z,6.40
2023-05-19T09:21:34.024Z,5.80
2023-05-19T09:24:37.861Z,6.65
2023-05-19T09:27:40.000Z,5.82
2023-05-19T09:30:42.460Z,6.20
2023-05-19T09:33:46.055Z,6.78
2023-05-19T09:36:53.494Z,7.40
2023-05-19T09:39:56.546Z,6.80
2023-05-19T09:42:58.963Z,6.72
2023-05-19T09:46:04.071Z,6.95
2023-05-19T09:49:09.800Z,7.35
2023-05-19T09:52:16.276Z,7.55
2023-05-19T09:55:23.004Z,7.72
2023-05-19T09:58:26.325Z,7.18
2023-05-19T10:01:32.849Z,6.43
2023-05-19T10:04:36.265Z,6.53
2023-05-19T10:07:40.407Z,7.37
2023-05-19T10:10:45.450Z,6.50
2023-05-19T10:13:50.936Z,6.60
2023-05-19T10:16:55.375Z,5.87
2023-05-19T10:19:59.326Z,5.87
2023-05-19T10:23:03.054Z,6.03
2023-05-19T10:26:06.872Z,5.60
2023-05-19T10:29:10.627Z,6.28
2023-05-19T10:32:22.674Z,6.25
2023-05-19T10:35:27.905Z,5.95
2023-05-19T10:38:48.217Z,6.12
2023-05-19T10:42:13.165Z,6.32
2023-05-19T10:45:21.432Z,6.10
2023-05-19T10:48:24.322Z,5.82
2023-05-19T10:51:33.987Z,6.50
2023-05-19T10:54:48.114Z,7.03
2023-05-19T10:58:00.379Z,5.72
2023-05-19T11:01:02.959Z,5.93
2023-05-19T11:04:13.852Z,6.12
2023-05-19T11:07:21.690Z,6.25
2023-05-19T11:10:24.657Z,6.45
2023-05-19T11:13:28.428Z,5.78
2023-05-19T11:16:34.896Z,5.37
2023-05-19T11:19:37.643Z,6.15
2023-05-19T11:22:40.010Z,5.50
2023-05-19T11:25:47.603Z,6.10
2023-05-19T11:28:50.176Z,5.82
2023-05-19T11:31:52.812Z,5.95
2023-05-19T11:34:56.138Z,5.55
2023-05-19T11:37:59.386Z,5.75
2023-05-19T11:41:03.192Z,5.60
2023-05-19T11:44:10.050Z,5.15
2023-05-19T11:47:13.681Z,5.35
2023-05-19T11:50:16.575Z,5.40
2023-05-19T11:53:21.560Z,5.18
2023-05-19T11:56:24.044Z,5.28
2023-05-19T11:59:34.946Z,4.80
2023-05-19T12:02:38.461Z,4.82
2023-05-19T12:05:46.759Z,4.60
2023-05-19T12:08:52.028Z,4.37
2023-05-19T12:11:55.163Z,4.78
2023-05-19T12:14:57.360Z,4.78
2023-05-19T12:18:03.214Z,5.20
2023-05-19T12:21:05.828Z,5.75
2023-05-19T12:24:08.892Z,4.55
2023-05-19T12:27:14.924Z,4.65
2023-05-19T12:30:17.374Z,5.00
2023-05-19T12:33:19.765Z,5.07
2023-05-19T12:36:25.170Z,4.72
2023-05-19T12:39:27.449Z,4.87
2023-05-19T12:42:34.982Z,4.28
2023-05-19T12:45:38.537Z,4.45
2023-05-19T12:48:45.556Z,4.03
2023-05-19T12:51:54.395Z,5.07
2023-05-19T12:55:07.661Z,4.70
2023-05-19T12:58:13.462Z,4.45
2023-05-19T13:01:17.911Z,4.95
2023-05-19T13:04:20.228Z,4.53
2023-05-19T13:07:22.736Z,4.50
2023-05-19T13:10:29.338Z,4.53
2023-05-19T13:13:32.331Z,4.50
2023-05-19T13:16:34.479Z,4.82
2023-05-19T13:19:36.998Z,4.85
2023-05-19T13:22:39.232Z,4.40
2023-05-19T13:25:42.300Z,4.78
2023-05-19T13:28:44.655Z,4.10
2023-05-19T13:31:47.063Z,4.20
2023-05-19T13:34:49.290Z,3.87
2023-05-19T13:37:51.771Z,4.35
2023-05-19T13:40:54.644Z,4.32
2023-05-19T13:44:01.150Z,4.30
2023-05-19T13:47:03.335Z,4.50
2023-05-19T13:50:06.472Z,4.15
2023-05-19T13:53:08.807Z,3.97
2023-05-19T13:56:11.395Z,4.20
2023-05-19T13:59:13.585Z,4.45
2023-05-19T14:02:16.232Z,4.45
2023-05-19T14:05:18.708Z,4.30
2023-05-19T14:08:20.943Z,4.55
2023-05-19T14:11:23.447Z,5.05
2023-05-19T14:14:25.817Z,4.20
2023-05-19T14:17:28.597Z,5.37
2023-05-19T14:20:31.377Z,4.07
2023-05-19T14:23:34.316Z,3.50
2023-05-19T14:26:36.575Z,4.20
2023-05-19T14:29:39.281Z,4.90
2023-05-19T14:32:41.581Z,3.67
2023-05-19T14:35:44.066Z,4.20
2023-05-19T14:38:46.390Z,3.75
2023-05-19T14:41:50.942Z,3.70
2023-05-19T14:44:53.160Z,3.22
2023-05-19T14:47:55.854Z,3.70
2023-05-19T14:50:58.057Z,3.95
2023-05-19T14:54:02.085Z,3.78
2023-05-19T14:57:04.551Z,4.10
2023-05-19T15:00:10.054Z,3.45
2023-05-19T15:03:12.272Z,3.50
2023-05-19T15:06:14.781Z,4.00
2023-05-19T15:09:16.952Z,3.62
2023-05-19T15:12:19.493Z,4.00
2023-05-19T15:15:21.706Z,3.50
2023-05-19T15:18:24.210Z,3.60
2023-05-19T15:21:26.422Z,3.70
2023-05-19T15:24:28.859Z,3.78
